Frostburg, MD

4:15 AM EST on January 28, 2015 (GMT -0500)
Hershey Hollow Rd. | Change Station
CLOSE
Current Station
Personal Weather Station
Location: Keyser, WV
Elevation: 1152 ft
Nearby Weather Stations

Elev 1152 ft 39.37 °N, 79.01 °W | Updated 10 minutes ago

Mostly Cloudy
Mostly Cloudy
17.2 °F
Feels Like 12 °F
N
3.1
Wind Variable Wind from SSW
Gusts 7.6 mph

Today
High -- | Low -- °F
--% Chance of Precip.
Yesterday
High -- | Low -- °F
Precip. -- in
7:27 AM 5:30 PM
Waxing Gibbous, 63% visible
Pressure 30.19 in
Visibility 10.0 miles
Clouds Clear
Windchill 12 °F
Dew Point -6 °F
Humidity 35%
Rainfall 0.00 in
Snow Depth Not available.
UV 0.0 out of 12
Pollen .10 out of 12
Air Quality Not available.
Flu Activity Not available.
METAR KCBE 280903Z AUTO 00000KT 10SM CLR M08/M13 A3019 RMK AO1

More Conditions Fewer Conditions

Pressure 30.19 in
Visibility 10.0 miles
Clouds Clear
Windchill 12 °F
Dew Point -6 °F
Humidity 35%
Rainfall 0.00 in
Snow Depth Not available.
UV 0.0 out of 12
Pollen .10 out of 12
Air Quality Not available.
Flu Activity Not available.
METAR KCBE 280903Z AUTO 00000KT 10SM CLR M08/M13 A3019 RMK AO1

More Conditions Fewer Conditions

10-Day Weather Forecast

Almanac

Astronomy

Jan. 28, 2015 Rise Set
Actual Time
Civil Twilight
Nautical Twilight
Astronomical Twilight
Moon
Length of Visible Light
Length of Day
Tomorrow will be .
, % of the Moon is Illuminated

Today's Extremes

State Highs State Lows

Community

WunderPhotos

Upload Photos

1,791,120 photos uploaded!

WunderBlogs® & News

Nearby

Air Quality

  Air Quality AQ Index Pollutant
Not available.

Snow Depth

Station Depth Elevation

Earthquake Activity

City Distance Mag. Time & Date
Minimum magnitude displayed is 2.5.

Coastal Water Temperatures

Place Temperature

Nearby Weather Stations